sensor_id;sensor_type;location;lat;lon;timestamp;pressure;altitude;pressure_sealevel;temperature;humidity
8061;BME280;4073;42.626;25.386;2023-04-25T00:01:33;96513.41;;;13.38;100.00
8061;BME280;4073;42.626;25.386;2023-04-25T00:04:02;96513.56;;;13.42;100.00
8061;BME280;4073;42.626;25.386;2023-04-25T00:06:29;96508.72;;;13.44;100.00
8061;BME280;4073;42.626;25.386;2023-04-25T00:08:55;96515.34;;;13.46;100.00
8061;BME280;4073;42.626;25.386;2023-04-25T00:11:22;96511.25;;;13.49;100.00
8061;BME280;4073;42.626;25.386;2023-04-25T00:13:48;96505.88;;;13.49;100.00
8061;BME280;4073;42.626;25.386;2023-04-25T00:16:15;96500.66;;;13.44;100.00
8061;BME280;4073;42.626;25.386;2023-04-25T00:18:41;96497.31;;;13.38;100.00
8061;BME280;4073;42.626;25.386;2023-04-25T00:21:07;96480.38;;;13.38;100.00
8061;BME280;4073;42.626;25.386;2023-04-25T00:23:34;96466.00;;;13.34;100.00
8061;BME280;4073;42.626;25.386;2023-04-25T00:26:02;96469.38;;;13.17;100.00
8061;BME280;4073;42.626;25.386;2023-04-25T00:28:27;96446.72;;;13.10;100.00
8061;BME280;4073;42.626;25.386;2023-04-25T00:30:53;96466.31;;;13.10;100.00
8061;BME280;4073;42.626;25.386;2023-04-25T00:33:18;96459.22;;;13.14;100.00
8061;BME280;4073;42.626;25.386;2023-04-25T00:35:44;96448.44;;;13.06;100.00
8061;BME280;4073;42.626;25.386;2023-04-25T00:38:09;96433.25;;;13.01;100.00
8061;BME280;4073;42.626;25.386;2023-04-25T00:40:35;96415.94;;;12.93;100.00
8061;BME280;4073;42.626;25.386;2023-04-25T00:43:00;96427.56;;;13.02;100.00
8061;BME280;4073;42.626;25.386;2023-04-25T00:45:29;96392.69;;;12.89;100.00
8061;BME280;4073;42.626;25.386;2023-04-25T00:47:55;96418.63;;;13.07;100.00
8061;BME280;4073;42.626;25.386;2023-04-25T00:50:21;96386.13;;;12.95;100.00
8061;BME280;4073;42.626;25.386;2023-04-25T00:52:47;96408.25;;;13.14;100.00
8061;BME280;4073;42.626;25.386;2023-04-25T00:55:13;96375.69;;;12.93;100.00
8061;BME280;4073;42.626;25.386;2023-04-25T00:57:39;96412.13;;;13.08;100.00
8061;BME280;4073;42.626;25.386;2023-04-25T01:00:06;96411.53;;;13.11;100.00
8061;BME280;4073;42.626;25.386;2023-04-25T01:02:33;96411.22;;;13.13;100.00
8061;BME280;4073;42.626;25.386;2023-04-25T01:05:01;96409.81;;;13.15;100.00
8061;BME280;4073;42.626;25.386;2023-04-25T01:07:26;96402.56;;;13.16;100.00
8061;BME280;4073;42.626;25.386;2023-04-25T01:09:52;96406.34;;;13.15;100.00
8061;BME280;4073;42.626;25.386;2023-04-25T01:12:18;96394.81;;;13.14;100.00
8061;BME280;4073;42.626;25.386;2023-04-25T01:14:43;96365.47;;;12.95;100.00
8061;BME280;4073;42.626;25.386;2023-04-25T01:17:10;96395.13;;;13.13;100.00
8061;BME280;4073;42.626;25.386;2023-04-25T01:19:36;96375.63;;;12.98;100.00
8061;BME280;4073;42.626;25.386;2023-04-25T01:22:02;96399.28;;;13.19;100.00
8061;BME280;4073;42.626;25.386;2023-04-25T01:24:29;96390.94;;;13.20;100.00
8061;BME280;4073;42.626;25.386;2023-04-25T01:26:55;96380.91;;;13.12;100.00
8061;BME280;4073;42.626;25.386;2023-04-25T01:29:22;96362.78;;;12.95;100.00
8061;BME280;4073;42.626;25.386;2023-04-25T01:31:48;96384.50;;;13.07;100.00
8061;BME280;4073;42.626;25.386;2023-04-25T01:34:14;96378.53;;;13.11;100.00
8061;BME280;4073;42.626;25.386;2023-04-25T01:36:40;96381.22;;;13.11;100.00
8061;BME280;4073;42.626;25.386;2023-04-25T01:39:06;96369.50;;;13.07;100.00
8061;BME280;4073;42.626;25.386;2023-04-25T01:41:32;96340.47;;;12.86;100.00
8061;BME280;4073;42.626;25.386;2023-04-25T01:43:57;96368.63;;;12.97;100.00
8061;BME280;4073;42.626;25.386;2023-04-25T01:46:23;96362.72;;;12.87;100.00
8061;BME280;4073;42.626;25.386;2023-04-25T01:48:49;96373.72;;;12.99;100.00
8061;BME280;4073;42.626;25.386;2023-04-25T01:51:14;96375.22;;;12.91;100.00
8061;BME280;4073;42.626;25.386;2023-04-25T01:53:40;96376.81;;;12.92;100.00
8061;BME280;4073;42.626;25.386;2023-04-25T01:56:06;96378.22;;;12.90;100.00
8061;BME280;4073;42.626;25.386;2023-04-25T01:58:31;96375.84;;;12.88;100.00
8061;BME280;4073;42.626;25.386;2023-04-25T02:00:57;96372.66;;;12.86;100.00
8061;BME280;4073;42.626;25.386;2023-04-25T02:03:22;96363.63;;;12.82;100.00
8061;BME280;4073;42.626;25.386;2023-04-25T02:05:48;96345.34;;;12.62;100.00
8061;BME280;4073;42.626;25.386;2023-04-25T02:08:13;96371.38;;;12.84;100.00
8061;BME280;4073;42.626;25.386;2023-04-25T02:10:39;96363.34;;;12.84;100.00
8061;BME280;4073;42.626;25.386;2023-04-25T02:13:04;96358.78;;;12.84;100.00
8061;BME280;4073;42.626;25.386;2023-04-25T02:15:30;96358.13;;;12.87;100.00
8061;BME280;4073;42.626;25.386;2023-04-25T02:17:56;96366.97;;;12.88;100.00
8061;BME280;4073;42.626;25.386;2023-04-25T02:20:22;96367.78;;;12.88;100.00
8061;BME280;4073;42.626;25.386;2023-04-25T02:22:48;96371.06;;;12.85;100.00
8061;BME280;4073;42.626;25.386;2023-04-25T02:25:14;96374.22;;;12.87;100.00
8061;BME280;4073;42.626;25.386;2023-04-25T02:27:41;96371.69;;;12.82;100.00
8061;BME280;4073;42.626;25.386;2023-04-25T02:30:07;96387.16;;;12.85;100.00
8061;BME280;4073;42.626;25.386;2023-04-25T02:32:33;96360.03;;;12.65;100.00
8061;BME280;4073;42.626;25.386;2023-04-25T02:35:02;96383.63;;;12.76;100.00
8061;BME280;4073;42.626;25.386;2023-04-25T02:37:33;96389.78;;;12.77;100.00
8061;BME280;4073;42.626;25.386;2023-04-25T02:39:58;96355.59;;;12.60;100.00
8061;BME280;4073;42.626;25.386;2023-04-25T02:42:24;96382.94;;;12.71;100.00
8061;BME280;4073;42.626;25.386;2023-04-25T02:44:50;96378.63;;;12.61;100.00
8061;BME280;4073;42.626;25.386;2023-04-25T02:47:15;96354.94;;;12.41;100.00
8061;BME280;4073;42.626;25.386;2023-04-25T02:49:41;96353.00;;;12.33;100.00
8061;BME280;4073;42.626;25.386;2023-04-25T02:52:06;96383.53;;;12.46;100.00
8061;BME280;4073;42.626;25.386;2023-04-25T02:54:32;96369.94;;;12.42;100.00
8061;BME280;4073;42.626;25.386;2023-04-25T02:56:57;96378.53;;;12.53;100.00
8061;BME280;4073;42.626;25.386;2023-04-25T02:59:23;96383.03;;;12.44;100.00
8061;BME280;4073;42.626;25.386;2023-04-25T03:01:48;96375.50;;;12.46;100.00
8061;BME280;4073;42.626;25.386;2023-04-25T03:04:14;96374.44;;;12.33;100.00
8061;BME280;4073;42.626;25.386;2023-04-25T03:06:39;96357.78;;;12.23;100.00
8061;BME280;4073;42.626;25.386;2023-04-25T03:09:05;96382.56;;;12.42;100.00
8061;BME280;4073;42.626;25.386;2023-04-25T03:11:30;96387.13;;;12.41;100.00
8061;BME280;4073;42.626;25.386;2023-04-25T03:13:56;96391.75;;;12.49;100.00
8061;BME280;4073;42.626;25.386;2023-04-25T03:16:21;96389.56;;;12.51;100.00
8061;BME280;4073;42.626;25.386;2023-04-25T03:18:47;96388.00;;;12.50;100.00
8061;BME280;4073;42.626;25.386;2023-04-25T03:21:12;96399.69;;;12.54;100.00
8061;BME280;4073;42.626;25.386;2023-04-25T03:23:38;96387.06;;;12.55;100.00
8061;BME280;4073;42.626;25.386;2023-04-25T03:26:03;96387.56;;;12.57;100.00
8061;BME280;4073;42.626;25.386;2023-04-25T03:28:29;96376.88;;;12.43;100.00
8061;BME280;4073;42.626;25.386;2023-04-25T03:30:54;96391.94;;;12.53;100.00
8061;BME280;4073;42.626;25.386;2023-04-25T03:33:20;96367.38;;;12.37;100.00
8061;BME280;4073;42.626;25.386;2023-04-25T03:35:46;96380.94;;;12.54;100.00
8061;BME280;4073;42.626;25.386;2023-04-25T03:38:11;96376.84;;;12.57;100.00
8061;BME280;4073;42.626;25.386;2023-04-25T03:40:36;96375.44;;;12.59;100.00
8061;BME280;4073;42.626;25.386;2023-04-25T03:43:02;96366.91;;;12.57;100.00
8061;BME280;4073;42.626;25.386;2023-04-25T03:45:27;96374.47;;;12.55;100.00
8061;BME280;4073;42.626;25.386;2023-04-25T03:47:53;96384.88;;;12.57;100.00
8061;BME280;4073;42.626;25.386;2023-04-25T03:50:18;96382.72;;;12.59;100.00
8061;BME280;4073;42.626;25.386;2023-04-25T03:52:43;96359.19;;;12.42;100.00
8061;BME280;4073;42.626;25.386;2023-04-25T03:55:09;96381.31;;;12.61;100.00
8061;BME280;4073;42.626;25.386;2023-04-25T03:57:35;96379.41;;;12.62;100.00
8061;BME280;4073;42.626;25.386;2023-04-25T04:00:00;96349.75;;;12.45;100.00
8061;BME280;4073;42.626;25.386;2023-04-25T04:02:26;96364.84;;;12.54;100.00
8061;BME280;4073;42.626;25.386;2023-04-25T04:04:51;96377.03;;;12.60;100.00
8061;BME280;4073;42.626;25.386;2023-04-25T04:07:17;96362.38;;;12.44;100.00
8061;BME280;4073;42.626;25.386;2023-04-25T04:09:43;96384.09;;;12.56;100.00
8061;BME280;4073;42.626;25.386;2023-04-25T04:12:08;96382.19;;;12.57;100.00
8061;BME280;4073;42.626;25.386;2023-04-25T04:14:33;96381.69;;;12.55;100.00
8061;BME280;4073;42.626;25.386;2023-04-25T04:16:59;96388.25;;;12.62;100.00
8061;BME280;4073;42.626;25.386;2023-04-25T04:19:25;96388.25;;;12.62;100.00
8061;BME280;4073;42.626;25.386;2023-04-25T04:21:50;96384.97;;;12.65;100.00
8061;BME280;4073;42.626;25.386;2023-04-25T04:24:16;96383.06;;;12.66;100.00
8061;BME280;4073;42.626;25.386;2023-04-25T04:26:42;96357.88;;;12.53;100.00
8061;BME280;4073;42.626;25.386;2023-04-25T04:29:10;96389.78;;;12.77;100.00
8061;BME280;4073;42.626;25.386;2023-04-25T04:31:36;96363.13;;;12.58;100.00
8061;BME280;4073;42.626;25.386;2023-04-25T04:34:02;96356.88;;;12.63;100.00
8061;BME280;4073;42.626;25.386;2023-04-25T04:36:29;96381.31;;;12.83;100.00
8061;BME280;4073;42.626;25.386;2023-04-25T04:38:54;96366.25;;;12.74;100.00
8061;BME280;4073;42.626;25.386;2023-04-25T04:41:21;96364.69;;;12.73;100.00
8061;BME280;4073;42.626;25.386;2023-04-25T04:43:47;96370.47;;;12.88;100.00
8061;BME280;4073;42.626;25.386;2023-04-25T04:46:13;96375.34;;;12.86;100.00
8061;BME280;4073;42.626;25.386;2023-04-25T04:48:38;96376.19;;;12.95;100.00
8061;BME280;4073;42.626;25.386;2023-04-25T04:51:05;96370.72;;;13.00;100.00
8061;BME280;4073;42.626;25.386;2023-04-25T04:53:31;96362.47;;;12.97;100.00
8061;BME280;4073;42.626;25.386;2023-04-25T04:55:57;96375.53;;;13.12;100.00
8061;BME280;4073;42.626;25.386;2023-04-25T04:58:23;96380.50;;;13.19;100.00
8061;BME280;4073;42.626;25.386;2023-04-25T05:00:49;96378.28;;;13.21;100.00
8061;BME280;4073;42.626;25.386;2023-04-25T05:03:14;96371.84;;;13.22;100.00
8061;BME280;4073;42.626;25.386;2023-04-25T05:05:41;96372.00;;;13.25;100.00
8061;BME280;4073;42.626;25.386;2023-04-25T05:08:06;96371.25;;;13.33;100.00
8061;BME280;4073;42.626;25.386;2023-04-25T05:10:32;96377.47;;;13.42;100.00
8061;BME280;4073;42.626;25.386;2023-04-25T05:12:57;96359.59;;;13.38;100.00
8061;BME280;4073;42.626;25.386;2023-04-25T05:15:23;96376.78;;;13.67;100.00
8061;BME280;4073;42.626;25.386;2023-04-25T05:17:48;96375.53;;;13.73;100.00
8061;BME280;4073;42.626;25.386;2023-04-25T05:20:14;96382.06;;;13.81;100.00
8061;BME280;4073;42.626;25.386;2023-04-25T05:22:41;96382.69;;;13.78;100.00
8061;BME280;4073;42.626;25.386;2023-04-25T05:25:08;96378.88;;;13.79;100.00
8061;BME280;4073;42.626;25.386;2023-04-25T05:27:33;96383.94;;;13.80;100.00
8061;BME280;4073;42.626;25.386;2023-04-25T05:29:59;96384.88;;;13.76;100.00
8061;BME280;4073;42.626;25.386;2023-04-25T05:32:24;96356.41;;;13.66;100.00
8061;BME280;4073;42.626;25.386;2023-04-25T05:34:50;96375.09;;;13.80;100.00
8061;BME280;4073;42.626;25.386;2023-04-25T05:37:16;96368.63;;;13.81;100.00
8061;BME280;4073;42.626;25.386;2023-04-25T05:39:42;96348.84;;;13.68;100.00
8061;BME280;4073;42.626;25.386;2023-04-25T05:42:07;96378.59;;;13.89;100.00
8061;BME280;4073;42.626;25.386;2023-04-25T05:44:32;96367.53;;;13.90;100.00
8061;BME280;4073;42.626;25.386;2023-04-25T05:46:58;96347.25;;;13.76;100.00
8061;BME280;4073;42.626;25.386;2023-04-25T05:49:24;96365.16;;;13.89;100.00
8061;BME280;4073;42.626;25.386;2023-04-25T05:51:49;96333.41;;;13.82;100.00
8061;BME280;4073;42.626;25.386;2023-04-25T05:54:14;96333.88;;;13.93;100.00
8061;BME280;4073;42.626;25.386;2023-04-25T05:56:40;96365.59;;;14.30;100.00
8061;BME280;4073;42.626;25.386;2023-04-25T05:59:05;96342.03;;;14.35;100.00
8061;BME280;4073;42.626;25.386;2023-04-25T06:01:31;96348.25;;;14.61;100.00
8061;BME280;4073;42.626;25.386;2023-04-25T06:03:56;96361.38;;;14.97;100.00
8061;BME280;4073;42.626;25.386;2023-04-25T06:06:22;96369.09;;;15.15;100.00
8061;BME280;4073;42.626;25.386;2023-04-25T06:08:47;96369.56;;;15.26;100.00
8061;BME280;4073;42.626;25.386;2023-04-25T06:11:13;96367.03;;;15.21;100.00
8061;BME280;4073;42.626;25.386;2023-04-25T06:13:38;96370.34;;;15.18;100.00
8061;BME280;4073;42.626;25.386;2023-04-25T06:16:04;96373.38;;;15.08;100.00
8061;BME280;4073;42.626;25.386;2023-04-25T06:18:30;96368.97;;;15.03;100.00
8061;BME280;4073;42.626;25.386;2023-04-25T06:20:55;96370.38;;;14.92;100.00
8061;BME280;4073;42.626;25.386;2023-04-25T06:23:20;96382.59;;;14.81;100.00
8061;BME280;4073;42.626;25.386;2023-04-25T06:25:46;96389.41;;;14.79;100.00
8061;BME280;4073;42.626;25.386;2023-04-25T06:28:11;96383.06;;;14.75;100.00
8061;BME280;4073;42.626;25.386;2023-04-25T06:30:37;96362.78;;;14.43;100.00
8061;BME280;4073;42.626;25.386;2023-04-25T06:33:03;96383.22;;;14.70;100.00
8061;BME280;4073;42.626;25.386;2023-04-25T06:35:28;96386.84;;;14.74;100.00
8061;BME280;4073;42.626;25.386;2023-04-25T06:37:54;96359.50;;;14.55;100.00
8061;BME280;4073;42.626;25.386;2023-04-25T06:40:19;96381.78;;;14.89;100.00
8061;BME280;4073;42.626;25.386;2023-04-25T06:42:45;96365.31;;;14.99;100.00
8061;BME280;4073;42.626;25.386;2023-04-25T06:45:10;96382.34;;;15.55;100.00
8061;BME280;4073;42.626;25.386;2023-04-25T06:47:36;96365.56;;;15.49;100.00
8061;BME280;4073;42.626;25.386;2023-04-25T06:50:01;96385.38;;;15.91;100.00
8061;BME280;4073;42.626;25.386;2023-04-25T06:52:27;96397.47;;;16.14;100.00
8061;BME280;4073;42.626;25.386;2023-04-25T06:54:52;96383.38;;;16.37;100.00
8061;BME280;4073;42.626;25.386;2023-04-25T06:57:18;96395.47;;;16.60;100.00
8061;BME280;4073;42.626;25.386;2023-04-25T06:59:43;96375.13;;;16.42;100.00
8061;BME280;4073;42.626;25.386;2023-04-25T07:02:08;96394.03;;;16.42;100.00
8061;BME280;4073;42.626;25.386;2023-04-25T07:04:34;96370.00;;;15.91;100.00
8061;BME280;4073;42.626;25.386;2023-04-25T07:07:00;96370.16;;;15.86;100.00
8061;BME280;4073;42.626;25.386;2023-04-25T07:09:28;96375.50;;;15.66;100.00
8061;BME280;4073;42.626;25.386;2023-04-25T07:11:53;96386.69;;;15.76;100.00
8061;BME280;4073;42.626;25.386;2023-04-25T07:14:18;96394.78;;;15.76;100.00
8061;BME280;4073;42.626;25.386;2023-04-25T07:16:44;96384.00;;;15.76;100.00
8061;BME280;4073;42.626;25.386;2023-04-25T07:19:10;96389.72;;;15.75;100.00
8061;BME280;4073;42.626;25.386;2023-04-25T07:21:35;96386.53;;;15.81;100.00
8061;BME280;4073;42.626;25.386;2023-04-25T07:24:01;96387.66;;;15.80;100.00
8061;BME280;4073;42.626;25.386;2023-04-25T07:26:27;96387.47;;;15.85;100.00
8061;BME280;4073;42.626;25.386;2023-04-25T07:28:52;96373.47;;;15.92;100.00
8061;BME280;4073;42.626;25.386;2023-04-25T07:31:20;96383.69;;;16.15;100.00
8061;BME280;4073;42.626;25.386;2023-04-25T07:33:45;96380.28;;;16.56;100.00
8061;BME280;4073;42.626;25.386;2023-04-25T07:36:11;96380.28;;;16.56;100.00
8061;BME280;4073;42.626;25.386;2023-04-25T07:38:38;96374.69;;;16.81;100.00
8061;BME280;4073;42.626;25.386;2023-04-25T07:41:03;96376.16;;;17.32;100.00
8061;BME280;4073;42.626;25.386;2023-04-25T07:43:29;96354.97;;;17.78;100.00
8061;BME280;4073;42.626;25.386;2023-04-25T07:45:54;96368.06;;;18.25;100.00
8061;BME280;4073;42.626;25.386;2023-04-25T07:48:19;96344.06;;;18.47;100.00
8061;BME280;4073;42.626;25.386;2023-04-25T07:50:45;96362.31;;;19.17;100.00
8061;BME280;4073;42.626;25.386;2023-04-25T07:53:11;96362.56;;;19.83;100.00
8061;BME280;4073;42.626;25.386;2023-04-25T07:55:36;96373.91;;;20.04;100.00
8061;BME280;4073;42.626;25.386;2023-04-25T07:58:08;96370.34;;;20.00;100.00
8061;BME280;4073;42.626;25.386;2023-04-25T08:00:34;96368.31;;;19.81;100.00
8061;BME280;4073;42.626;25.386;2023-04-25T08:02:59;96343.84;;;19.78;100.00
8061;BME280;4073;42.626;25.386;2023-04-25T08:05:25;96358.00;;;20.18;100.00
8061;BME280;4073;42.626;25.386;2023-04-25T08:07:50;96362.28;;;20.34;87.34
8061;BME280;4073;42.626;25.386;2023-04-25T08:10:16;96363.53;;;20.72;82.21
8061;BME280;4073;42.626;25.386;2023-04-25T08:12:41;96370.75;;;20.83;75.62
8061;BME280;4073;42.626;25.386;2023-04-25T08:15:08;96353.00;;;20.89;77.72
8061;BME280;4073;42.626;25.386;2023-04-25T08:17:33;96366.25;;;20.91;74.30
8061;BME280;4073;42.626;25.386;2023-04-25T08:19:59;96359.69;;;20.92;76.23
8061;BME280;4073;42.626;25.386;2023-04-25T08:22:24;96358.56;;;21.12;75.02
8061;BME280;4073;42.626;25.386;2023-04-25T08:24:50;96347.19;;;21.25;72.23
8061;BME280;4073;42.626;25.386;2023-04-25T08:27:15;96365.75;;;21.42;74.42
8061;BME280;4073;42.626;25.386;2023-04-25T08:29:41;96357.50;;;21.77;72.20
8061;BME280;4073;42.626;25.386;2023-04-25T08:32:07;96364.81;;;21.95;67.53
8061;BME280;4073;42.626;25.386;2023-04-25T08:34:33;96335.41;;;21.82;67.52
8061;BME280;4073;42.626;25.386;2023-04-25T08:36:58;96352.31;;;21.72;69.32
8061;BME280;4073;42.626;25.386;2023-04-25T08:39:24;96360.28;;;21.39;71.58
8061;BME280;4073;42.626;25.386;2023-04-25T08:41:50;96338.94;;;21.22;69.15
8061;BME280;4073;42.626;25.386;2023-04-25T08:44:16;96339.75;;;21.22;68.89
8061;BME280;4073;42.626;25.386;2023-04-25T08:46:42;96340.25;;;21.50;71.55
8061;BME280;4073;42.626;25.386;2023-04-25T08:49:11;96344.31;;;21.79;69.42
8061;BME280;4073;42.626;25.386;2023-04-25T08:51:44;96341.63;;;21.60;67.55
8061;BME280;4073;42.626;25.386;2023-04-25T08:54:12;96344.34;;;22.05;69.02
8061;BME280;4073;42.626;25.386;2023-04-25T08:56:44;96341.56;;;22.24;63.62
8061;BME280;4073;42.626;25.386;2023-04-25T08:59:11;96341.56;;;22.50;62.29
8061;BME280;4073;42.626;25.386;2023-04-25T09:01:36;96339.53;;;22.43;59.95
8061;BME280;4073;42.626;25.386;2023-04-25T09:04:02;96334.81;;;22.66;61.36
8061;BME280;4073;42.626;25.386;2023-04-25T09:06:31;96346.44;;;22.37;61.29
8061;BME280;4073;42.626;25.386;2023-04-25T09:09:04;96352.53;;;21.63;63.48
8061;BME280;4073;42.626;25.386;2023-04-25T09:11:31;96342.06;;;21.20;64.63
8061;BME280;4073;42.626;25.386;2023-04-25T09:14:16;96340.84;;;20.64;67.14
8061;BME280;4073;42.626;25.386;2023-04-25T09:16:59;96339.97;;;20.25;69.27
8061;BME280;4073;42.626;25.386;2023-04-25T09:19:35;96331.66;;;20.03;71.40
8061;BME280;4073;42.626;25.386;2023-04-25T09:22:04;96326.06;;;19.80;73.22
8061;BME280;4073;42.626;25.386;2023-04-25T09:24:38;96332.88;;;19.59;74.36
8061;BME280;4073;42.626;25.386;2023-04-25T09:27:08;96326.91;;;19.38;74.58
8061;BME280;4073;42.626;25.386;2023-04-25T09:29:36;96294.81;;;18.97;76.19
8061;BME280;4073;42.626;25.386;2023-04-25T09:34:42;96322.13;;;18.92;77.72
8061;BME280;4073;42.626;25.386;2023-04-25T09:37:09;96321.50;;;18.83;77.58
8061;BME280;4073;42.626;25.386;2023-04-25T09:39:37;96320.63;;;19.06;76.19
8061;BME280;4073;42.626;25.386;2023-04-25T09:42:04;96317.03;;;19.30;75.93
8061;BME280;4073;42.626;25.386;2023-04-25T09:44:30;96311.81;;;19.52;76.32
8061;BME280;4073;42.626;25.386;2023-04-25T09:46:55;96311.34;;;19.97;74.77
8061;BME280;4073;42.626;25.386;2023-04-25T09:49:21;96315.75;;;20.71;71.56
8061;BME280;4073;42.626;25.386;2023-04-25T09:51:59;96312.56;;;21.22;67.89
8061;BME280;4073;42.626;25.386;2023-04-25T09:54:25;96282.41;;;21.72;67.88
8061;BME280;4073;42.626;25.386;2023-04-25T09:56:53;96290.47;;;21.91;66.40
8061;BME280;4073;42.626;25.386;2023-04-25T09:59:22;96308.78;;;21.94;66.02
8061;BME280;4073;42.626;25.386;2023-04-25T10:01:50;96307.81;;;22.06;65.15
8061;BME280;4073;42.626;25.386;2023-04-25T10:04:24;96280.16;;;21.78;66.21
8061;BME280;4073;42.626;25.386;2023-04-25T10:06:52;96279.69;;;22.21;66.09
8061;BME280;4073;42.626;25.386;2023-04-25T10:09:27;96287.72;;;22.40;64.37
8061;BME280;4073;42.626;25.386;2023-04-25T10:11:56;96295.47;;;22.64;63.44
8061;BME280;4073;42.626;25.386;2023-04-25T10:14:22;96288.22;;;22.75;62.12
8061;BME280;4073;42.626;25.386;2023-04-25T10:16:49;96282.84;;;22.52;61.71
8061;BME280;4073;42.626;25.386;2023-04-25T10:19:15;96288.91;;;22.68;60.37
8061;BME280;4073;42.626;25.386;2023-04-25T10:24:31;96248.47;;;23.04;57.69
8061;BME280;4073;42.626;25.386;2023-04-25T10:26:57;96256.72;;;22.77;58.84
8061;BME280;4073;42.626;25.386;2023-04-25T10:29:27;96244.84;;;22.59;58.70
8061;BME280;4073;42.626;25.386;2023-04-25T10:31:52;96240.66;;;22.39;59.97
8061;BME280;4073;42.626;25.386;2023-04-25T10:34:18;96244.84;;;22.07;60.93
8061;BME280;4073;42.626;25.386;2023-04-25T10:36:51;96225.69;;;21.74;62.13
8061;BME280;4073;42.626;25.386;2023-04-25T10:39:24;96236.78;;;22.14;63.21
8061;BME280;4073;42.626;25.386;2023-04-25T10:41:56;96235.81;;;22.85;60.23
8061;BME280;4073;42.626;25.386;2023-04-25T10:44:22;96226.78;;;23.58;56.06
8061;BME280;4073;42.626;25.386;2023-04-25T10:46:48;96212.72;;;23.99;54.03
8061;BME280;4073;42.626;25.386;2023-04-25T10:49:34;96217.88;;;24.15;51.59
8061;BME280;4073;42.626;25.386;2023-04-25T10:54:41;96214.41;;;25.03;50.37
8061;BME280;4073;42.626;25.386;2023-04-25T10:57:07;96210.19;;;25.38;49.02
8061;BME280;4073;42.626;25.386;2023-04-25T10:59:32;96203.56;;;25.74;44.84
8061;BME280;4073;42.626;25.386;2023-04-25T11:01:58;96192.97;;;25.93;44.50
8061;BME280;4073;42.626;25.386;2023-04-25T11:04:31;96202.72;;;26.22;44.28
8061;BME280;4073;42.626;25.386;2023-04-25T11:09:33;96199.97;;;26.22;40.25
8061;BME280;4073;42.626;25.386;2023-04-25T11:11:59;96198.84;;;25.67;40.90
8061;BME280;4073;42.626;25.386;2023-04-25T11:14:25;96182.97;;;24.55;45.41
8061;BME280;4073;42.626;25.386;2023-04-25T11:16:55;96175.50;;;23.77;47.51
8061;BME280;4073;42.626;25.386;2023-04-25T11:19:21;96194.47;;;23.60;50.81
8061;BME280;4073;42.626;25.386;2023-04-25T11:21:47;96189.03;;;23.20;52.64
8061;BME280;4073;42.626;25.386;2023-04-25T11:24:12;96195.13;;;22.69;53.96
8061;BME280;4073;42.626;25.386;2023-04-25T11:26:38;96187.66;;;22.04;56.13
8061;BME280;4073;42.626;25.386;2023-04-25T11:29:06;96188.78;;;21.51;57.85
8061;BME280;4073;42.626;25.386;2023-04-25T11:31:31;96161.13;;;21.23;59.06
8061;BME280;4073;42.626;25.386;2023-04-25T11:33:57;96170.38;;;21.18;58.37
8061;BME280;4073;42.626;25.386;2023-04-25T11:36:24;96135.56;;;20.82;57.23
8061;BME280;4073;42.626;25.386;2023-04-25T11:38:53;96161.03;;;20.93;56.57
8061;BME280;4073;42.626;25.386;2023-04-25T11:41:21;96156.44;;;20.78;57.25
8061;BME280;4073;42.626;25.386;2023-04-25T11:43:48;96137.63;;;20.89;63.20
8061;BME280;4073;42.626;25.386;2023-04-25T11:46:14;96163.00;;;21.41;62.69
8061;BME280;4073;42.626;25.386;2023-04-25T11:48:41;96154.69;;;21.83;60.06
8061;BME280;4073;42.626;25.386;2023-04-25T11:51:07;96150.94;;;22.20;59.03
8061;BME280;4073;42.626;25.386;2023-04-25T11:53:33;96128.44;;;22.27;56.22
8061;BME280;4073;42.626;25.386;2023-04-25T11:55:59;96117.75;;;22.44;55.84
8061;BME280;4073;42.626;25.386;2023-04-25T11:58:25;96137.25;;;22.46;58.26
8061;BME280;4073;42.626;25.386;2023-04-25T12:00:51;96136.38;;;22.39;58.35
8061;BME280;4073;42.626;25.386;2023-04-25T12:03:17;96115.03;;;22.11;60.28
8061;BME280;4073;42.626;25.386;2023-04-25T12:05:45;96130.97;;;22.09;57.89
8061;BME280;4073;42.626;25.386;2023-04-25T12:08:15;96123.41;;;21.96;62.16
8061;BME280;4073;42.626;25.386;2023-04-25T12:10:42;96131.00;;;21.83;60.25
8061;BME280;4073;42.626;25.386;2023-04-25T12:13:37;96130.22;;;21.57;68.88
8061;BME280;4073;42.626;25.386;2023-04-25T12:16:03;96109.16;;;21.28;67.67
8061;BME280;4073;42.626;25.386;2023-04-25T12:18:28;96124.75;;;21.31;69.13
8061;BME280;4073;42.626;25.386;2023-04-25T12:20:54;96128.53;;;21.23;68.63
8061;BME280;4073;42.626;25.386;2023-04-25T12:23:28;96107.97;;;20.80;70.27
8061;BME280;4073;42.626;25.386;2023-04-25T12:25:55;96116.75;;;20.51;71.89
8061;BME280;4073;42.626;25.386;2023-04-25T12:28:22;96117.91;;;20.31;72.43
8061;BME280;4073;42.626;25.386;2023-04-25T12:31:01;96099.00;;;19.96;77.37
8061;BME280;4073;42.626;25.386;2023-04-25T12:33:30;96098.47;;;19.72;76.48
8061;BME280;4073;42.626;25.386;2023-04-25T12:35:56;96098.56;;;19.41;78.25
8061;BME280;4073;42.626;25.386;2023-04-25T12:38:29;96092.28;;;19.21;78.15
8061;BME280;4073;42.626;25.386;2023-04-25T12:40:56;96097.63;;;19.02;79.43
8061;BME280;4073;42.626;25.386;2023-04-25T12:43:22;96082.78;;;18.81;81.00
8061;BME280;4073;42.626;25.386;2023-04-25T12:45:49;96079.19;;;18.61;81.51
8061;BME280;4073;42.626;25.386;2023-04-25T12:48:15;96095.53;;;18.80;84.60
8061;BME280;4073;42.626;25.386;2023-04-25T12:50:41;96091.59;;;18.93;86.47
8061;BME280;4073;42.626;25.386;2023-04-25T12:53:06;96091.41;;;19.33;86.11
8061;BME280;4073;42.626;25.386;2023-04-25T12:55:32;96086.63;;;19.61;85.17
8061;BME280;4073;42.626;25.386;2023-04-25T12:57:57;96066.06;;;19.60;83.86
8061;BME280;4073;42.626;25.386;2023-04-25T13:00:23;96079.56;;;19.94;82.78
8061;BME280;4073;42.626;25.386;2023-04-25T13:02:48;96088.91;;;19.97;81.46
8061;BME280;4073;42.626;25.386;2023-04-25T13:05:14;96086.38;;;20.23;80.41
8061;BME280;4073;42.626;25.386;2023-04-25T13:07:40;96077.66;;;20.33;76.56
8061;BME280;4073;42.626;25.386;2023-04-25T13:10:06;96085.88;;;20.17;71.55
8061;BME280;4073;42.626;25.386;2023-04-25T13:12:32;96110.56;;;20.31;73.92